Terminal Aerodrome Forecast
Issued by NWS

Home | Current Version | Previous Version | Text Only | Print | Product List | Glossary Off
Versions: 1 2 3 4 5 6 7 8 9 10 11 12 13 14 15 16 17 18 19 20 21 22 23 24

000
FTUS43 KGRB 212329
TAFATW
TAF
KATW 212329Z 2200/2224 VRB03KT 1/4SM -DZ FG OVC002
      TEMPO 2200/2204 OVC001
     FM220500 22004KT 1/4SM -DZ FG OVC002
     FM221600 VRB03KT 1/2SM FG OVC002
     FM221800 34004KT 3SM BR OVC008=

USA.gov is the U.S. government's official web portal to all federal, state and local government web resources and services.